createdAt,value
2023-03-22T00:00:46.995Z,107.00
2023-03-22T00:03:55.446Z,105.00
2023-03-22T00:06:58.519Z,106.10
2023-03-22T00:10:01.593Z,110.40
2023-03-22T00:13:06.446Z,106.60
2023-03-22T00:16:11.001Z,100.40
2023-03-22T00:19:14.129Z,94.70
2023-03-22T00:22:17.225Z,91.60
2023-03-22T00:25:20.390Z,94.60
2023-03-22T00:28:24.276Z,95.70
2023-03-22T00:31:27.727Z,89.80
2023-03-22T00:34:32.732Z,88.40
2023-03-22T00:37:38.758Z,86.90
2023-03-22T00:40:42.148Z,89.90
2023-03-22T00:43:47.210Z,90.60
2023-03-22T00:46:50.758Z,93.40
2023-03-22T00:49:53.901Z,94.50
2023-03-22T00:52:57.002Z,88.70
2023-03-22T00:56:00.424Z,86.20
2023-03-22T00:59:04.600Z,88.10
2023-03-22T01:02:08.352Z,82.00
2023-03-22T01:05:16.077Z,85.50
2023-03-22T01:08:19.459Z,82.90
2023-03-22T01:11:24.909Z,84.50
2023-03-22T01:14:29.014Z,82.60
2023-03-22T01:17:32.953Z,82.50
2023-03-22T01:20:36.809Z,81.50
2023-03-22T01:23:40.275Z,77.40
2023-03-22T01:26:43.454Z,87.70
2023-03-22T01:29:46.554Z,77.60
2023-03-22T01:32:49.621Z,74.00
2023-03-22T01:35:53.609Z,79.30
2023-03-22T01:38:57.162Z,73.30
2023-03-22T01:42:02.472Z,78.30
2023-03-22T01:45:15.529Z,74.30
2023-03-22T01:48:35.741Z,77.80
2023-03-22T01:51:40.824Z,77.30
2023-03-22T01:54:58.738Z,81.80
2023-03-22T01:58:18.038Z,84.40
2023-03-22T02:01:32.947Z,83.90
2023-03-22T02:04:39.303Z,82.30
2023-03-22T02:07:44.991Z,82.10
2023-03-22T02:10:49.699Z,81.70
2023-03-22T02:13:56.190Z,86.30
2023-03-22T02:17:43.606Z,77.80
2023-03-22T02:20:53.094Z,77.70
2023-03-22T02:24:17.830Z,80.30
2023-03-22T02:27:56.160Z,74.90
2023-03-22T02:31:05.473Z,73.70
2023-03-22T02:34:38.087Z,74.60
2023-03-22T02:38:17.939Z,75.30
2023-03-22T02:41:38.640Z,76.00
2023-03-22T02:44:48.264Z,82.50
2023-03-22T02:48:03.695Z,72.00
2023-03-22T02:51:13.782Z,75.80
2023-03-22T02:54:24.862Z,70.50
2023-03-22T02:57:45.780Z,70.20
2023-03-22T03:00:52.982Z,80.40
2023-03-22T03:04:01.134Z,81.00
2023-03-22T03:07:09.778Z,82.80
2023-03-22T03:10:17.737Z,86.60
2023-03-22T03:13:21.351Z,81.60
2023-03-22T03:16:29.476Z,78.60
2023-03-22T03:19:45.057Z,74.60
2023-03-22T03:23:13.846Z,71.70
2023-03-22T03:26:41.990Z,70.90
2023-03-22T03:29:53.120Z,74.60
2023-03-22T03:33:01.916Z,79.00
2023-03-22T03:36:15.272Z,80.00
2023-03-22T03:39:21.095Z,80.80
2023-03-22T03:42:28.636Z,83.00
2023-03-22T03:45:36.041Z,81.20
2023-03-22T03:48:43.115Z,87.30
2023-03-22T03:51:55.430Z,84.50
2023-03-22T03:54:58.910Z,81.20
2023-03-22T03:58:06.403Z,77.90
2023-03-22T04:01:09.605Z,77.00
2023-03-22T04:04:29.559Z,71.00
2023-03-22T04:07:39.702Z,71.00
2023-03-22T04:10:42.991Z,70.50
2023-03-22T04:13:46.287Z,68.60
2023-03-22T04:16:52.833Z,73.30
2023-03-22T04:19:56.861Z,73.90
2023-03-22T04:23:00.339Z,72.90
2023-03-22T04:26:03.737Z,81.70
2023-03-22T04:29:16.068Z,73.10
2023-03-22T04:32:23.209Z,71.30
2023-03-22T04:35:27.031Z,71.30
2023-03-22T04:38:30.439Z,69.90
2023-03-22T04:41:34.730Z,69.80
2023-03-22T04:44:38.132Z,75.80
2023-03-22T04:47:41.635Z,76.00
2023-03-22T04:50:45.688Z,76.00
2023-03-22T04:53:49.010Z,78.80
2023-03-22T04:56:52.385Z,78.60
2023-03-22T04:59:56.356Z,80.90
2023-03-22T05:02:59.549Z,78.80
2023-03-22T05:06:09.345Z,79.80
2023-03-22T05:09:31.693Z,79.80
2023-03-22T05:12:34.959Z,72.50
2023-03-22T05:16:10.580Z,77.10
2023-03-22T05:19:22.499Z,86.50
2023-03-22T05:22:26.238Z,84.70
2023-03-22T05:25:30.417Z,90.80
2023-03-22T05:28:35.828Z,88.20
2023-03-22T05:31:44.163Z,87.70
2023-03-22T05:34:48.679Z,87.90
2023-03-22T05:38:04.904Z,90.50
2023-03-22T05:41:10.656Z,89.20
2023-03-22T05:44:13.874Z,90.80
2023-03-22T05:47:24.890Z,87.80
2023-03-22T05:50:40.546Z,80.50
2023-03-22T05:53:45.691Z,81.40
2023-03-22T05:56:54.669Z,83.00
2023-03-22T05:59:59.172Z,76.10
2023-03-22T06:03:16.942Z,67.00
2023-03-22T06:06:23.932Z,69.60
2023-03-22T06:09:36.860Z,66.10
2023-03-22T06:12:42.115Z,68.30
2023-03-22T06:15:49.961Z,68.70
2023-03-22T06:18:59.217Z,67.90
2023-03-22T06:22:02.536Z,67.90
2023-03-22T06:25:07.880Z,62.80
2023-03-22T06:28:15.409Z,72.00
2023-03-22T06:31:25.289Z,70.10
2023-03-22T06:34:33.205Z,70.20
2023-03-22T06:37:36.566Z,70.00
2023-03-22T06:40:41.870Z,70.40
2023-03-22T06:43:45.777Z,70.40
2023-03-22T06:47:09.906Z,67.60
2023-03-22T06:54:02.888Z,63.90
2023-03-22T06:57:06.874Z,69.40
2023-03-22T07:00:12.861Z,67.50
2023-03-22T07:03:16.101Z,71.00
2023-03-22T07:06:35.397Z,73.80
2023-03-22T07:09:39.848Z,67.30
2023-03-22T07:12:43.297Z,69.20
2023-03-22T07:15:49.405Z,67.40
2023-03-22T07:19:14.743Z,67.90
2023-03-22T07:22:17.911Z,71.70
2023-03-22T07:25:21.150Z,73.10
2023-03-22T07:28:27.111Z,81.10
2023-03-22T07:31:31.656Z,73.90
2023-03-22T07:34:40.038Z,71.20
2023-03-22T07:37:51.109Z,69.90
2023-03-22T07:40:58.684Z,70.60
2023-03-22T07:44:17.361Z,73.00
2023-03-22T07:47:40.730Z,72.00
2023-03-22T07:51:07.985Z,72.20
2023-03-22T07:54:14.032Z,69.60
2023-03-22T07:57:20.898Z,71.70
2023-03-22T08:00:30.112Z,68.90
2023-03-22T08:03:51.309Z,72.50
2023-03-22T08:07:26.433Z,71.80
2023-03-22T08:10:31.837Z,68.50
2023-03-22T08:13:35.828Z,74.00
2023-03-22T08:16:39.413Z,70.40
2023-03-22T08:19:43.205Z,70.20
2023-03-22T08:22:47.455Z,70.50
2023-03-22T08:26:09.670Z,71.80
2023-03-22T08:29:13.235Z,80.90
2023-03-22T08:32:21.999Z,71.00
2023-03-22T08:35:25.272Z,69.90
2023-03-22T08:38:28.570Z,73.80
2023-03-22T08:41:32.463Z,73.90
2023-03-22T08:44:35.725Z,66.30
2023-03-22T08:47:39.658Z,61.20
2023-03-22T08:50:44.061Z,58.10
2023-03-22T08:53:58.967Z,56.90
2023-03-22T08:57:27.714Z,51.10
2023-03-22T09:00:51.312Z,46.40
2023-03-22T09:04:27.336Z,43.40
2023-03-22T09:07:31.355Z,44.50
2023-03-22T09:10:41.316Z,48.60
2023-03-22T09:13:46.071Z,40.60
2023-03-22T09:16:49.387Z,38.70
2023-03-22T09:20:05.784Z,43.20
2023-03-22T09:23:15.545Z,34.80
2023-03-22T09:26:18.904Z,36.30
2023-03-22T09:29:24.994Z,35.10
2023-03-22T09:32:31.673Z,35.20
2023-03-22T09:35:43.598Z,33.50
2023-03-22T09:38:51.364Z,31.00
2023-03-22T09:42:45.323Z,35.70
2023-03-22T09:46:15.437Z,29.30
2023-03-22T09:49:59.997Z,29.60
2023-03-22T09:57:37.528Z,26.80
2023-03-22T10:00:46.225Z,24.80
2023-03-22T10:04:20.276Z,26.90
2023-03-22T10:07:42.050Z,26.10
2023-03-22T10:10:45.593Z,27.20
2023-03-22T10:14:13.408Z,25.40
2023-03-22T10:17:22.070Z,22.20
2023-03-22T10:20:44.998Z,24.50
2023-03-22T10:23:57.367Z,26.70
2023-03-22T10:30:07.703Z,26.00
2023-03-22T10:33:28.957Z,24.20
2023-03-22T10:36:35.928Z,25.90
2023-03-22T10:39:44.140Z,28.20
2023-03-22T10:42:56.970Z,27.70
2023-03-22T10:46:07.786Z,27.20
2023-03-22T10:49:26.165Z,25.90
2023-03-22T10:52:50.040Z,27.60
2023-03-22T10:55:53.632Z,26.20
2023-03-22T10:58:59.653Z,25.80
2023-03-22T11:02:03.066Z,23.10
2023-03-22T11:05:18.773Z,21.20
2023-03-22T11:08:22.191Z,22.20
2023-03-22T11:11:27.113Z,28.90
2023-03-22T11:14:30.344Z,24.00
2023-03-22T11:17:37.977Z,24.60
2023-03-22T11:20:43.560Z,22.50
2023-03-22T11:23:58.759Z,21.70
2023-03-22T11:27:08.308Z,15.50
2023-03-22T11:30:20.257Z,16.20
2023-03-22T11:33:25.973Z,17.90
2023-03-22T11:36:30.009Z,21.90
2023-03-22T11:39:33.356Z,19.40
2023-03-22T11:42:37.032Z,16.00
2023-03-22T11:45:45.487Z,10.80
2023-03-22T11:48:52.276Z,12.90
2023-03-22T11:51:56.501Z,12.20
2023-03-22T11:55:01.580Z,12.20
2023-03-22T11:58:06.526Z,16.00
2023-03-22T12:01:27.858Z,13.60
2023-03-22T12:04:36.483Z,13.20
2023-03-22T12:07:41.413Z,14.00
2023-03-22T12:10:51.545Z,15.50
2023-03-22T12:14:15.185Z,14.00
2023-03-22T12:17:35.423Z,13.20
2023-03-22T12:20:58.778Z,14.00
2023-03-22T12:24:03.504Z,16.40
2023-03-22T12:27:37.551Z,10.90
2023-03-22T12:30:44.460Z,10.60
2023-03-22T12:33:50.418Z,11.00
2023-03-22T12:36:57.307Z,15.60
2023-03-22T12:40:24.382Z,12.80
2023-03-22T12:43:42.272Z,10.40
2023-03-22T12:46:56.675Z,7.50
2023-03-22T12:50:20.356Z,8.40
2023-03-22T12:53:30.709Z,9.30
2023-03-22T12:56:43.636Z,9.90
2023-03-22T12:59:51.813Z,11.00
2023-03-22T13:03:08.020Z,8.70
2023-03-22T13:06:28.155Z,7.70
2023-03-22T13:09:37.376Z,8.00
2023-03-22T13:12:40.538Z,8.80
2023-03-22T13:16:11.062Z,13.60
2023-03-22T13:19:36.475Z,9.20
2023-03-22T13:22:41.684Z,7.60
2023-03-22T13:26:03.677Z,9.40
2023-03-22T13:29:36.533Z,13.50
2023-03-22T13:32:53.215Z,9.80
2023-03-22T13:36:30.155Z,9.80
2023-03-22T13:39:36.106Z,8.60
2023-03-22T13:42:41.566Z,11.40
2023-03-22T13:46:17.802Z,8.90
2023-03-22T13:49:42.648Z,7.30
2023-03-22T13:53:02.470Z,9.50
2023-03-22T13:56:07.396Z,6.30
2023-03-22T13:59:18.918Z,6.60
2023-03-22T14:02:35.967Z,7.00
2023-03-22T14:05:39.707Z,8.40
2023-03-22T14:08:46.035Z,6.00
2023-03-22T14:11:57.181Z,9.30
2023-03-22T14:15:03.700Z,9.60
2023-03-22T14:18:18.022Z,7.50
2023-03-22T14:21:31.463Z,5.70
